Time;durP1;ratioP1;P1;durP2;ratioP2;P2;SDS_P1;SDS_P2;PMS_P1;PMS_P2;Temp;Humidity;BMP_temperature;BMP_pressure;BME280_temperature;BME280_humidity;BME280_pressure;Samples;Min_cycle;Max_cycle;Signal;HPM_P1;HPM_P2
2021/04/13 00:00:34;;;;;;;2.47;1.65;;;6.50;99.90;;;;;;5047538;28;20051;-50
2021/04/13 00:03:06;;;;;;;2.95;2.20;;;6.50;99.90;;;;;;5047534;28;20114;-50
2021/04/13 00:05:41;;;;;;;6.35;1.98;;;6.40;99.90;;;;;;5046963;28;20498;-50
2021/04/13 00:08:25;;;;;;;4.38;2.70;;;6.30;99.90;;;;;;5046916;28;20037;-50
2021/04/13 00:10:58;;;;;;;5.32;2.10;;;6.40;99.90;;;;;;5054240;28;20029;-50
2021/04/13 00:13:24;;;;;;;4.53;2.20;;;6.50;99.90;;;;;;5050504;28;20052;-52
2021/04/13 00:15:53;;;;;;;4.78;2.40;;;6.40;99.90;;;;;;5047069;28;20079;-49
2021/04/13 00:18:27;;;;;;;3.22;2.13;;;6.40;99.90;;;;;;5047074;28;20033;-50
2021/04/13 00:20:58;;;;;;;5.30;2.70;;;6.30;99.90;;;;;;5047323;28;20075;-48
2021/04/13 00:23:24;;;;;;;3.55;2.25;;;6.10;99.90;;;;;;5046497;28;20036;-48
2021/04/13 00:26:00;;;;;;;3.50;2.25;;;6.20;99.90;;;;;;5047339;28;20215;-47
2021/04/13 00:28:29;;;;;;;4.47;2.15;;;6.10;99.90;;;;;;5047454;28;20043;-49
2021/04/13 00:30:58;;;;;;;4.28;2.03;;;6.00;99.90;;;;;;5047013;28;20128;-49
2021/04/13 00:33:30;;;;;;;3.75;2.10;;;6.10;99.90;;;;;;5046813;28;20647;-47
2021/04/13 00:36:11;;;;;;;4.68;2.15;;;6.10;99.90;;;;;;5047542;28;20133;-48
2021/04/13 00:38:43;;;;;;;6.38;2.30;;;6.00;99.90;;;;;;5051589;28;20031;-48
2021/04/13 00:41:10;;;;;;;4.30;2.03;;;6.00;99.90;;;;;;5065736;28;20040;-47
2021/04/13 00:43:40;;;;;;;3.80;2.22;;;6.00;99.90;;;;;;5066423;28;20471;-47
2021/04/13 00:46:07;;;;;;;2.42;1.88;;;6.10;99.90;;;;;;5067049;28;20032;-49
2021/04/13 00:48:37;;;;;;;2.40;1.70;;;6.00;99.90;;;;;;5066685;28;20472;-48
2021/04/13 00:51:26;;;;;;;4.10;2.00;;;5.90;99.90;;;;;;5065671;28;20036;-47
2021/04/13 00:53:59;;;;;;;3.72;2.05;;;6.00;99.90;;;;;;5066676;28;20024;-48
2021/04/13 00:56:26;;;;;;;3.88;1.98;;;6.00;99.90;;;;;;5067007;28;20707;-48
2021/04/13 00:59:10;;;;;;;4.07;2.47;;;5.90;99.90;;;;;;5067030;28;20032;-47
2021/04/13 01:01:43;;;;;;;4.07;2.08;;;6.00;99.90;;;;;;5046378;28;20041;-48
2021/04/13 01:04:31;;;;;;;5.90;2.47;;;6.00;99.90;;;;;;5046448;28;20067;-49
2021/04/13 01:07:37;;;;;;;5.75;3.15;;;5.90;99.90;;;;;;5046778;28;20032;-47
2021/04/13 01:10:07;;;;;;;5.03;2.70;;;5.90;99.90;;;;;;5017501;28;20539;-47
2021/04/13 01:12:37;;;;;;;5.70;2.40;;;5.90;99.90;;;;;;5003932;28;20042;-49
2021/04/13 01:15:06;;;;;;;6.70;3.47;;;5.80;99.90;;;;;;5026148;28;20124;-51
2021/04/13 01:17:31;;;;;;;7.85;4.10;;;5.80;99.90;;;;;;5046429;28;20040;-50
2021/04/13 01:20:15;;;;;;;18.23;7.63;;;5.70;99.90;;;;;;5046778;28;20025;-50
2021/04/13 01:22:59;;;;;;;9.73;5.43;;;5.70;99.90;;;;;;5046512;28;20073;-52
2021/04/13 01:25:35;;;;;;;8.40;4.30;;;5.70;99.90;;;;;;5047935;28;20028;-50
2021/04/13 01:28:11;;;;;;;7.72;4.15;;;5.60;99.90;;;;;;5050073;28;20067;-51
2021/04/13 01:30:53;;;;;;;7.60;4.22;;;5.60;99.90;;;;;;5049733;28;20071;-51
2021/04/13 01:33:41;;;;;;;11.73;6.05;;;5.50;99.90;;;;;;5050155;28;20033;-50
2021/04/13 01:36:25;;;;;;;15.43;8.23;;;5.40;99.90;;;;;;5050031;28;20021;-50
2021/04/13 01:39:14;;;;;;;17.40;7.88;;;5.60;99.90;;;;;;5050301;28;20037;-51
2021/04/13 01:41:58;;;;;;;9.23;4.78;;;5.60;99.90;;;;;;5049636;28;20032;-49
2021/04/13 01:44:31;;;;;;;8.82;5.10;;;5.50;99.90;;;;;;5048287;28;20033;-51
2021/04/13 01:46:59;;;;;;;8.48;3.30;;;5.40;99.90;;;;;;5050583;28;20079;-47
2021/04/13 01:49:26;;;;;;;6.40;3.00;;;5.50;99.90;;;;;;5049232;28;20545;-49
2021/04/13 01:51:52;;;;;;;3.33;2.70;;;5.50;99.90;;;;;;5049483;28;20037;-48
2021/04/13 01:54:19;;;;;;;3.17;2.33;;;5.40;99.90;;;;;;5049863;28;20037;-48
2021/04/13 01:57:27;;;;;;;4.28;2.38;;;5.40;99.90;;;;;;5049786;28;20023;-49
2021/04/13 01:59:57;;;;;;;3.88;2.22;;;5.40;99.90;;;;;;5057613;28;20044;-47
2021/04/13 02:02:30;;;;;;;3.53;2.10;;;5.40;99.90;;;;;;5049250;28;20037;-49
2021/04/13 02:05:04;;;;;;;3.78;2.22;;;5.40;99.90;;;;;;5049451;28;20044;-51
2021/04/13 02:07:58;;;;;;;10.77;3.92;;;5.40;99.90;;;;;;5049443;28;20395;-48
2021/04/13 02:10:29;;;;;;;5.05;2.50;;;5.30;99.90;;;;;;5049036;28;20029;-51
2021/04/13 02:13:15;;;;;;;6.68;2.80;;;5.30;99.90;;;;;;5049544;28;20479;-52
2021/04/13 02:15:48;;;;;;;3.00;2.38;;;5.30;99.90;;;;;;5049424;28;20057;-51
2021/04/13 02:18:22;;;;;;;4.53;2.72;;;5.40;99.90;;;;;;5049333;28;20033;-49
2021/04/13 02:20:50;;;;;;;5.75;2.33;;;5.30;99.90;;;;;;5049018;28;20029;-48
2021/04/13 02:23:31;;;;;;;3.55;2.13;;;5.20;99.90;;;;;;5047520;28;20045;-47
2021/04/13 02:26:00;;;;;;;4.28;2.50;;;5.10;99.90;;;;;;5049948;28;20558;-50
2021/04/13 02:28:28;;;;;;;4.18;2.25;;;5.10;99.90;;;;;;5048768;28;20025;-50
2021/04/13 02:30:55;;;;;;;3.83;2.45;;;5.10;99.90;;;;;;5048906;28;20040;-48
2021/04/13 02:33:28;;;;;;;4.97;2.38;;;5.00;99.90;;;;;;5048909;28;20025;-47
2021/04/13 02:35:56;;;;;;;5.38;2.15;;;5.00;99.90;;;;;;5048783;28;20360;-48
2021/04/13 02:38:30;;;;;;;3.53;2.33;;;4.90;99.90;;;;;;5047820;28;20025;-50
2021/04/13 02:41:07;;;;;;;4.70;2.45;;;4.90;99.90;;;;;;5055569;28;20032;-50
2021/04/13 02:43:44;;;;;;;3.60;2.10;;;4.90;99.90;;;;;;5068390;28;20512;-50
2021/04/13 02:46:15;;;;;;;2.95;2.13;;;4.50;99.90;;;;;;5068808;28;20049;-50
2021/04/13 02:48:49;;;;;;;5.22;2.33;;;4.50;99.90;;;;;;5068548;28;20099;-49
2021/04/13 02:51:16;;;;;;;3.17;1.90;;;4.70;99.90;;;;;;5057628;28;20033;-48
2021/04/13 02:53:50;;;;;;;4.35;2.22;;;4.70;99.90;;;;;;5048705;28;20436;-50
2021/04/13 02:56:31;;;;;;;3.35;2.20;;;4.60;99.90;;;;;;5048269;28;20115;-48
2021/04/13 02:59:09;;;;;;;4.43;2.40;;;4.50;99.90;;;;;;5049234;28;20497;-50
2021/04/13 03:01:36;;;;;;;4.55;2.20;;;4.50;99.90;;;;;;5048119;28;20207;-47
2021/04/13 03:04:09;;;;;;;4.43;2.42;;;4.60;99.90;;;;;;5048135;28;20063;-50
2021/04/13 03:06:40;;;;;;;3.63;2.15;;;4.60;99.90;;;;;;5047699;28;20036;-50
2021/04/13 03:09:07;;;;;;;5.20;2.40;;;4.60;99.90;;;;;;5048304;28;20446;-47
2021/04/13 03:11:36;;;;;;;4.15;2.45;;;4.50;99.90;;;;;;5057795;28;20689;-49
2021/04/13 03:14:03;;;;;;;3.80;2.25;;;4.50;99.90;;;;;;5068493;28;20027;-49
2021/04/13 03:16:39;;;;;;;4.97;2.33;;;4.50;99.90;;;;;;5068603;28;20024;-48
2021/04/13 03:19:12;;;;;;;3.15;1.80;;;4.50;99.90;;;;;;5068042;28;20016;-51
2021/04/13 03:22:01;;;;;;;3.92;1.80;;;4.50;99.90;;;;;;5054606;28;20033;-49
2021/04/13 03:24:35;;;;;;;3.65;2.38;;;4.40;99.90;;;;;;5068357;28;20681;-50
2021/04/13 03:27:05;;;;;;;4.22;2.78;;;4.30;99.90;;;;;;5068953;28;20024;-50
2021/04/13 03:29:40;;;;;;;10.05;4.82;;;4.30;99.90;;;;;;5068431;28;20394;-51
2021/04/13 03:32:07;;;;;;;14.10;8.70;;;4.10;99.90;;;;;;5066799;28;20861;-47
2021/04/13 03:34:33;;;;;;;16.20;9.02;;;4.00;99.90;;;;;;5067273;28;20083;-50
2021/04/13 03:36:59;;;;;;;7.93;5.57;;;3.90;99.90;;;;;;5068508;28;20162;-48
2021/04/13 03:39:35;;;;;;;7.28;5.03;;;3.80;99.90;;;;;;5067629;28;20530;-48
2021/04/13 03:42:03;;;;;;;7.40;4.18;;;3.90;99.90;;;;;;5052793;28;20502;-50
2021/04/13 03:44:29;;;;;;;7.70;3.78;;;3.80;99.90;;;;;;5048059;28;20021;-48
2021/04/13 03:46:56;;;;;;;5.93;3.15;;;3.80;99.90;;;;;;5047614;28;20491;-48
2021/04/13 03:49:34;;;;;;;6.78;3.20;;;3.80;99.90;;;;;;5047245;28;20761;-48
2021/04/13 03:52:06;;;;;;;5.28;3.05;;;3.90;99.90;;;;;;5048453;28;20029;-51
2021/04/13 03:54:35;;;;;;;5.82;2.67;;;3.90;99.90;;;;;;5066130;28;20040;-51
2021/04/13 03:57:02;;;;;;;5.53;2.55;;;4.00;99.90;;;;;;5068099;28;20038;-50
2021/04/13 03:59:33;;;;;;;3.53;2.22;;;4.00;99.90;;;;;;5067816;28;20060;-50
2021/04/13 04:02:00;;;;;;;4.30;2.30;;;3.80;99.90;;;;;;5049986;28;20116;-50
2021/04/13 04:04:33;;;;;;;5.18;2.45;;;3.80;99.90;;;;;;5047110;28;20036;-50
2021/04/13 04:07:17;;;;;;;3.22;2.15;;;3.80;99.90;;;;;;5047757;28;20013;-50
2021/04/13 04:09:43;;;;;;;3.45;2.20;;;3.80;99.90;;;;;;5047510;28;20033;-51
2021/04/13 04:12:31;;;;;;;4.25;2.33;;;3.90;99.90;;;;;;5051028;28;20048;-51
2021/04/13 04:15:03;;;;;;;3.45;2.50;;;3.90;99.90;;;;;;5060082;28;20079;-51
2021/04/13 04:17:32;;;;;;;3.55;2.30;;;3.90;99.90;;;;;;5047453;28;20422;-50
2021/04/13 04:20:04;;;;;;;3.70;2.30;;;4.10;99.90;;;;;;5047311;28;20029;-47
2021/04/13 04:22:30;;;;;;;3.45;2.53;;;4.20;99.90;;;;;;5046990;28;20029;-49
2021/04/13 04:25:13;;;;;;;5.47;2.88;;;4.20;99.90;;;;;;5047225;28;20078;-51
2021/04/13 04:27:40;;;;;;;5.72;2.60;;;4.10;99.90;;;;;;5046815;28;20049;-50
2021/04/13 04:30:11;;;;;;;4.55;2.70;;;3.90;99.90;;;;;;5046831;28;20021;-50
2021/04/13 04:32:41;;;;;;;4.30;2.58;;;3.80;99.90;;;;;;5046112;28;20123;-48
2021/04/13 04:35:10;;;;;;;4.07;2.20;;;3.90;99.90;;;;;;5047045;28;20037;-50
2021/04/13 04:37:51;;;;;;;2.95;2.50;;;3.80;99.90;;;;;;5046401;28;20032;-50
2021/04/13 04:40:26;;;;;;;3.45;2.50;;;3.90;99.90;;;;;;5059041;28;20032;-50
2021/04/13 04:43:19;;;;;;;4.85;2.30;;;4.20;99.90;;;;;;5048386;28;20056;-51
2021/04/13 04:45:46;;;;;;;3.83;2.35;;;4.10;99.90;;;;;;5055806;28;20017;-50
2021/04/13 04:48:34;;;;;;;3.38;2.53;;;4.20;99.90;;;;;;5062929;28;20032;-49
2021/04/13 04:51:14;;;;;;;3.65;2.42;;;4.10;99.90;;;;;;5052330;28;20028;-48
2021/04/13 04:53:41;;;;;;;4.60;2.47;;;4.20;99.90;;;;;;5063526;28;20112;-50
2021/04/13 04:56:09;;;;;;;5.38;2.75;;;4.10;99.90;;;;;;5062328;28;20079;-49
2021/04/13 04:58:36;;;;;;;2.47;1.95;;;4.00;99.90;;;;;;5049851;28;20110;-52
2021/04/13 05:01:02;;;;;;;3.60;2.22;;;3.90;99.90;;;;;;5055513;28;20068;-48
2021/04/13 05:03:28;;;;;;;3.45;2.53;;;4.00;99.90;;;;;;5055196;28;20053;-51
2021/04/13 05:05:55;;;;;;;5.30;2.38;;;4.00;99.90;;;;;;5068060;28;20029;-50
2021/04/13 05:08:22;;;;;;;4.13;2.30;;;4.00;99.90;;;;;;5069219;28;20041;-49
2021/04/13 05:10:50;;;;;;;4.05;2.55;;;4.00;99.90;;;;;;5058584;28;20562;-50
2021/04/13 05:13:17;;;;;;;3.15;2.42;;;3.90;99.90;;;;;;5049334;28;20029;-51
2021/04/13 05:15:42;;;;;;;3.45;2.22;;;4.00;99.90;;;;;;5049919;28;20793;-49
2021/04/13 05:18:08;;;;;;;4.00;2.42;;;3.70;99.90;;;;;;5049496;28;20029;-50
2021/04/13 05:20:34;;;;;;;3.70;2.22;;;3.70;99.90;;;;;;5048917;28;20507;-49
2021/04/13 05:23:00;;;;;;;3.88;2.53;;;3.70;99.90;;;;;;5050204;28;20031;-51
2021/04/13 05:25:25;;;;;;;3.30;2.30;;;3.80;99.90;;;;;;5049512;28;20039;-50
2021/04/13 05:27:52;;;;;;;5.70;2.63;;;3.70;99.90;;;;;;5049443;28;20574;-49
2021/04/13 05:30:20;;;;;;;4.95;3.00;;;3.70;99.90;;;;;;5048769;28;20017;-50
2021/04/13 05:32:47;;;;;;;5.55;2.85;;;3.70;99.90;;;;;;5069109;28;20078;-49
2021/04/13 05:35:14;;;;;;;4.85;2.50;;;3.70;99.90;;;;;;5069335;28;20111;-49
2021/04/13 05:37:41;;;;;;;3.88;2.40;;;3.70;99.90;;;;;;5069312;28;20485;-49
2021/04/13 05:40:13;;;;;;;4.00;3.13;;;3.90;99.90;;;;;;5054666;28;20051;-51
2021/04/13 05:42:38;;;;;;;6.07;3.00;;;3.90;99.90;;;;;;5048628;28;20498;-50
2021/04/13 05:45:09;;;;;;;5.28;3.08;;;4.00;99.90;;;;;;5049614;28;20073;-49
2021/04/13 05:47:36;;;;;;;4.35;2.90;;;4.10;99.90;;;;;;5047596;28;20258;-50
2021/04/13 05:50:09;;;;;;;6.05;2.65;;;3.90;99.90;;;;;;5049103;28;20041;-50
2021/04/13 05:52:34;;;;;;;5.30;3.08;;;4.10;99.90;;;;;;5048418;28;20096;-49
2021/04/13 05:55:00;;;;;;;5.28;3.40;;;4.20;99.90;;;;;;5049650;28;20507;-47
2021/04/13 05:57:31;;;;;;;6.75;4.07;;;4.20;99.90;;;;;;5048459;28;20033;-49
2021/04/13 05:59:59;;;;;;;8.45;4.53;;;4.20;99.90;;;;;;5050258;28;20071;-48
2021/04/13 06:02:27;;;;;;;10.57;5.70;;;4.30;99.90;;;;;;5049898;28;20564;-48
2021/04/13 06:04:53;;;;;;;8.55;4.78;;;4.20;99.90;;;;;;5049067;28;20434;-48
2021/04/13 06:07:19;;;;;;;8.52;4.88;;;4.10;99.90;;;;;;5048182;28;20032;-50
2021/04/13 06:09:45;;;;;;;8.30;4.53;;;3.90;99.90;;;;;;5048293;28;20043;-48
2021/04/13 06:12:13;;;;;;;8.38;4.72;;;4.00;99.90;;;;;;5046418;28;20028;-48
2021/04/13 06:14:41;;;;;;;5.68;3.90;;;3.90;99.90;;;;;;5047442;28;20013;-49
2021/04/13 06:17:07;;;;;;;10.32;4.68;;;4.00;99.90;;;;;;5057870;28;20040;-49
2021/04/13 06:19:33;;;;;;;4.72;3.65;;;4.00;99.90;;;;;;5066764;28;20039;-49
2021/04/13 06:21:59;;;;;;;6.00;3.20;;;3.90;99.90;;;;;;5067675;28;20403;-49
2021/04/13 06:24:25;;;;;;;6.20;3.13;;;4.10;99.90;;;;;;5066151;28;20491;-51
2021/04/13 06:26:51;;;;;;;6.22;3.42;;;4.30;99.90;;;;;;5064817;28;20098;-50
2021/04/13 06:29:17;;;;;;;5.07;3.15;;;4.40;99.90;;;;;;5053474;28;20029;-49
2021/04/13 06:31:42;;;;;;;5.35;3.35;;;4.40;99.90;;;;;;5047976;28;20094;-49
2021/04/13 06:34:08;;;;;;;5.30;3.80;;;4.40;99.90;;;;;;5047151;28;20036;-48
2021/04/13 06:36:37;;;;;;;5.63;2.90;;;4.20;99.90;;;;;;5058360;28;20032;-49
2021/04/13 06:39:04;;;;;;;6.43;3.45;;;4.20;99.90;;;;;;5048436;28;20461;-48
2021/04/13 06:41:53;;;;;;;6.03;3.55;;;4.50;99.90;;;;;;5048604;28;20512;-48
2021/04/13 06:44:41;;;;;;;6.72;3.88;;;4.70;99.90;;;;;;5061250;28;20384;-50
2021/04/13 06:47:42;;;;;;;7.68;4.20;;;4.70;99.90;;;;;;5065442;28;20060;-47
2021/04/13 06:50:23;;;;;;;6.88;3.88;;;4.50;99.90;;;;;;5063248;28;20546;-49
2021/04/13 06:53:02;;;;;;;6.57;3.75;;;4.50;99.90;;;;;;5060790;28;20118;-50
2021/04/13 06:55:46;;;;;;;11.73;4.75;;;4.70;99.90;;;;;;5046409;28;20033;-48
2021/04/13 06:58:37;;;;;;;7.85;4.28;;;4.60;99.90;;;;;;5045896;28;20107;-48
2021/04/13 07:01:09;;;;;;;7.63;4.43;;;4.60;99.90;;;;;;5049304;28;20094;-47
2021/04/13 07:03:44;;;;;;;7.35;4.15;;;5.00;99.90;;;;;;5054657;28;20029;-50
2021/04/13 07:06:12;;;;;;;6.38;4.13;;;5.00;99.90;;;;;;5065129;28;20513;-47
2021/04/13 07:08:43;;;;;;;6.63;3.22;;;5.20;99.90;;;;;;5047475;28;20044;-47
2021/04/13 07:11:16;;;;;;;4.93;2.78;;;5.40;99.90;;;;;;5045677;28;20029;-48
2021/04/13 07:13:50;;;;;;;5.47;2.85;;;5.50;99.90;;;;;;5045976;28;20250;-47
2021/04/13 07:16:29;;;;;;;;;;;5.60;99.90;;;;;;5045506;28;20029;-49
2021/04/13 07:19:26;;;;;;;6.65;2.95;;;5.60;99.90;;;;;;5049174;28;19995;-50
2021/04/13 07:22:43;;;;;;;6.18;3.17;;;5.70;99.90;;;;;;5048689;28;20527;-48
2021/04/13 07:25:11;;;;;;;4.47;2.85;;;5.80;99.90;;;;;;5056326;28;20410;-49
2021/04/13 07:27:46;;;;;;;5.65;2.85;;;5.80;99.90;;;;;;5045566;28;20030;-49
2021/04/13 07:30:24;;;;;;;3.75;2.30;;;5.80;99.90;;;;;;5045873;28;20021;-51
2021/04/13 07:32:56;;;;;;;3.63;2.28;;;6.00;99.90;;;;;;5044544;28;20463;-49
2021/04/13 07:35:23;;;;;;;3.78;2.30;;;6.10;99.90;;;;;;5045183;28;20085;-47
2021/04/13 07:37:53;;;;;;;3.45;2.20;;;6.10;99.90;;;;;;5045704;28;20025;-46
2021/04/13 07:40:28;;;;;;;3.55;2.30;;;6.20;99.90;;;;;;5045514;28;20025;-50
2021/04/13 07:43:12;;;;;;;2.58;2.08;;;6.10;99.90;;;;;;5045261;28;20052;-47
2021/04/13 07:46:09;;;;;;;4.35;2.67;;;6.10;99.90;;;;;;5045225;28;20028;-50
2021/04/13 07:48:43;;;;;;;2.90;1.85;;;6.00;99.90;;;;;;5045227;28;20029;-51
2021/04/13 07:51:09;;;;;;;3.25;2.00;;;6.20;99.90;;;;;;5045725;28;20052;-49
2021/04/13 07:53:53;;;;;;;3.22;1.70;;;6.30;99.90;;;;;;5045032;28;20063;-47
2021/04/13 07:56:35;;;;;;;2.15;1.50;;;6.50;99.90;;;;;;5044980;28;20513;-50
2021/04/13 07:59:09;;;;;;;3.65;1.70;;;6.60;99.90;;;;;;5045927;28;20487;-48
2021/04/13 08:01:35;;;;;;;4.82;1.30;;;6.70;99.90;;;;;;5044720;28;20025;-49
2021/04/13 08:04:01;;;;;;;1.65;1.55;;;6.70;99.90;;;;;;5045602;28;20139;-50
2021/04/13 08:06:29;;;;;;;2.60;1.48;;;6.70;99.90;;;;;;5042942;28;20451;-49
2021/04/13 08:09:24;;;;;;;3.17;1.80;;;6.80;99.90;;;;;;5044886;28;20036;-49
2021/04/13 08:12:07;;;;;;;4.50;2.22;;;6.50;99.90;;;;;;5044868;28;20072;-49
2021/04/13 08:14:37;;;;;;;3.20;2.20;;;6.40;99.90;;;;;;5044770;28;20087;-47
2021/04/13 08:17:18;;;;;;;3.08;1.90;;;6.50;99.90;;;;;;5044644;28;20052;-50
2021/04/13 08:19:55;;;;;;;4.07;1.83;;;6.70;99.90;;;;;;5044963;28;20399;-46
2021/04/13 08:22:21;;;;;;;2.20;1.48;;;6.70;99.90;;;;;;5044915;28;20032;-46
2021/04/13 08:24:51;;;;;;;4.07;2.40;;;6.90;99.90;;;;;;5044663;28;20088;-48
2021/04/13 08:27:38;;;;;;;2.92;1.75;;;7.00;99.90;;;;;;5044828;28;20025;-48
2021/04/13 08:30:45;;;;;;;2.25;1.77;;;7.30;99.90;;;;;;5044582;28;20024;-48
2021/04/13 08:33:36;;;;;;;4.45;2.47;;;7.20;99.90;;;;;;5044714;28;20025;-47
2021/04/13 08:36:21;;;;;;;3.95;2.10;;;7.10;99.90;;;;;;5044321;28;20577;-49
2021/04/13 08:38:55;;;;;;;1.88;1.50;;;7.10;99.90;;;;;;5044467;28;20031;-48
2021/04/13 08:41:50;;;;;;;2.03;1.63;;;7.40;99.90;;;;;;5044624;28;20032;-50
2021/04/13 08:44:25;;;;;;;2.25;1.65;;;7.40;99.90;;;;;;5044366;28;20021;-48
2021/04/13 08:46:54;;;;;;;1.92;1.10;;;7.50;99.90;;;;;;5044353;28;20091;-47
2021/04/13 08:49:41;;;;;;;2.35;1.67;;;7.60;99.90;;;;;;5044522;28;20025;-49
2021/04/13 08:52:27;;;;;;;1.73;1.48;;;7.60;99.90;;;;;;5044867;28;20068;-47
2021/04/13 08:55:22;;;;;;;2.08;1.35;;;7.90;99.90;;;;;;5044235;28;20029;-46
2021/04/13 08:58:26;;;;;;;1.45;1.10;;;8.00;99.90;;;;;;5044358;28;20531;-49
2021/04/13 09:00:56;;;;;;;1.58;1.08;;;8.00;99.90;;;;;;5044284;28;20029;-48
2021/04/13 09:03:27;;;;;;;1.30;1.05;;;8.10;99.90;;;;;;5044148;28;20032;-49
2021/04/13 09:06:18;;;;;;;1.25;1.00;;;8.20;99.90;;;;;;5044265;28;20442;-48
2021/04/13 09:08:58;;;;;;;1.63;1.30;;;8.40;99.90;;;;;;5044074;28;20136;-48
2021/04/13 09:11:24;;;;;;;1.23;0.82;;;8.30;99.90;;;;;;5044009;28;20041;-48
2021/04/13 09:14:20;;;;;;;2.85;1.40;;;8.60;99.90;;;;;;5044122;28;20064;-48
2021/04/13 09:16:58;;;;;;;2.95;1.58;;;8.60;99.90;;;;;;5044323;28;20404;-51
2021/04/13 09:19:34;;;;;;;3.17;1.20;;;8.60;99.90;;;;;;5044000;28;20107;-47
2021/04/13 09:22:14;;;;;;;1.27;0.90;;;8.70;99.90;;;;;;5044639;28;20032;-48
2021/04/13 09:24:42;;;;;;;1.35;1.20;;;8.70;99.90;;;;;;5044562;28;20081;-46
2021/04/13 09:27:25;;;;;;;1.10;1.00;;;8.60;98.70;;;;;;5044477;28;20048;-49
2021/04/13 09:29:59;;;;;;;1.15;0.88;;;8.80;98.80;;;;;;5043980;28;20035;-50
2021/04/13 09:32:30;;;;;;;2.70;0.80;;;8.80;99.40;;;;;;5043906;28;20017;-50
2021/04/13 09:35:14;;;;;;;2.58;1.17;;;8.90;99.00;;;;;;5044261;28;20033;-58
2021/04/13 09:38:19;;;;;;;1.92;1.30;;;9.10;98.20;;;;;;5044220;28;20175;-58
2021/04/13 09:40:57;;;;;;;2.58;1.10;;;8.90;97.50;;;;;;5042071;28;20048;-58
2021/04/13 09:43:50;;;;;;;1.75;1.02;;;9.10;96.70;;;;;;5043658;28;20538;-58
2021/04/13 09:46:46;;;;;;;1.42;1.17;;;9.00;95.90;;;;;;5044519;28;20090;-58
2021/04/13 09:49:47;;;;;;;1.60;1.20;;;9.10;96.20;;;;;;5047798;28;20033;-58
2021/04/13 09:53:02;;;;;;;1.25;1.00;;;9.10;96.40;;;;;;5047740;28;20033;-58
2021/04/13 09:55:38;;;;;;;2.08;1.00;;;9.30;96.50;;;;;;5046617;28;20065;-58
2021/04/13 09:58:33;;;;;;;1.48;1.23;;;9.20;96.10;;;;;;5047214;28;20029;-59
2021/04/13 10:01:35;;;;;;;1.50;1.40;;;9.00;95.30;;;;;;5047974;28;20499;-58
2021/04/13 10:04:15;;;;;;;1.58;1.30;;;9.10;96.30;;;;;;5047942;28;20044;-57
2021/04/13 10:07:05;;;;;;;2.15;1.60;;;9.30;97.10;;;;;;5046807;28;20063;-58
2021/04/13 10:09:39;;;;;;;1.85;1.10;;;9.20;96.20;;;;;;5047556;28;20028;-58
2021/04/13 10:12:31;;;;;;;1.55;1.08;;;9.50;96.90;;;;;;5046994;28;20028;-58
2021/04/13 10:15:18;;;;;;;1.85;1.20;;;9.50;96.70;;;;;;5047318;28;20025;-58
2021/04/13 10:17:52;;;;;;;1.88;1.13;;;9.50;95.60;;;;;;5047557;28;20031;-58
2021/04/13 10:20:30;;;;;;;2.08;1.20;;;9.80;95.60;;;;;;5046611;28;20033;-59
2021/04/13 10:23:29;;;;;;;3.17;1.60;;;9.60;96.30;;;;;;5047105;28;20025;-58
2021/04/13 10:26:22;;;;;;;2.13;1.10;;;9.70;95.50;;;;;;5045261;28;20044;-58
2021/04/13 10:29:10;;;;;;;2.92;1.70;;;9.70;94.90;;;;;;5045460;28;20095;-58
2021/04/13 10:32:10;;;;;;;1.85;1.35;;;9.70;95.20;;;;;;5046673;28;20025;-58
2021/04/13 10:35:12;;;;;;;1.60;1.17;;;9.70;95.40;;;;;;5046502;28;20041;-58
2021/04/13 10:38:18;;;;;;;2.42;1.17;;;10.00;96.20;;;;;;5046825;28;20029;-58
2021/04/13 10:40:43;;;;;;;1.33;1.00;;;10.10;94.80;;;;;;5047082;28;20033;-58
2021/04/13 10:43:40;;;;;;;1.08;0.98;;;10.20;94.80;;;;;;5046325;28;20575;-58
2021/04/13 10:46:39;;;;;;;1.75;0.98;;;10.10;95.30;;;;;;5046571;28;20028;-58
2021/04/13 10:49:21;;;;;;;1.67;1.23;;;10.50;95.80;;;;;;5046500;28;20407;-47
2021/04/13 10:51:55;;;;;;;0.93;0.82;;;10.70;96.60;;;;;;5046337;28;20025;-47
2021/04/13 10:54:39;;;;;;;;;;;10.80;96.70;;;;;;5046582;28;20036;-47
2021/04/13 10:58:09;;;;;;;1.15;0.98;;;10.70;95.30;;;;;;5046364;28;19975;-48
2021/04/13 11:00:52;;;;;;;1.30;1.10;;;10.70;95.70;;;;;;5004046;28;20952;-47
2021/04/13 11:03:54;;;;;;;1.40;1.00;;;10.90;94.50;;;;;;5042247;28;20041;-49
2021/04/13 11:06:57;;;;;;;3.53;1.00;;;10.90;94.40;;;;;;5045557;28;20032;-49
2021/04/13 11:09:50;;;;;;;0.93;0.80;;;11.00;94.60;;;;;;5045756;28;20538;-47
2021/04/13 11:12:28;;;;;;;0.98;0.80;;;11.00;92.90;;;;;;5045932;28;20087;-48
2021/04/13 11:15:05;;;;;;;1.08;0.90;;;11.00;93.50;;;;;;5046131;28;20396;-47
2021/04/13 11:17:49;;;;;;;1.08;1.00;;;11.00;93.50;;;;;;5046374;28;20033;-48
2021/04/13 11:20:25;;;;;;;1.10;0.80;;;11.30;94.10;;;;;;5049547;28;20083;-46
2021/04/13 11:23:14;;;;;;;0.93;0.73;;;11.40;93.40;;;;;;5060056;28;20035;-48
2021/04/13 11:26:01;;;;;;;1.90;1.70;;;11.40;92.20;;;;;;5061780;28;20024;-47
2021/04/13 11:29:04;;;;;;;3.50;1.60;;;11.10;92.30;;;;;;5045475;28;20063;-47
2021/04/13 11:31:38;;;;;;;2.20;1.38;;;11.30;93.40;;;;;;5045302;28;20021;-50
2021/04/13 11:34:25;;;;;;;0.93;0.80;;;11.50;93.10;;;;;;5045123;28;20082;-47
2021/04/13 11:37:28;;;;;;;0.80;0.80;;;11.70;93.30;;;;;;5044785;28;20032;-47
2021/04/13 11:39:54;;;;;;;1.30;0.88;;;12.10;95.50;;;;;;5045037;28;20017;-47
2021/04/13 11:42:33;;;;;;;1.63;1.02;;;12.20;92.20;;;;;;5044572;28;20036;-47
2021/04/13 11:45:33;;;;;;;0.77;0.77;;;12.10;92.10;;;;;;5045352;28;20060;-46
2021/04/13 11:48:11;;;;;;;1.25;0.95;;;12.30;92.50;;;;;;5057833;28;20510;-50
2021/04/13 11:50:44;;;;;;;1.77;1.60;;;12.40;93.40;;;;;;5064594;28;20031;-47
2021/04/13 11:53:26;;;;;;;3.15;1.95;;;12.00;91.70;;;;;;5064744;28;20027;-49
2021/04/13 11:55:54;;;;;;;2.10;1.73;;;11.80;92.10;;;;;;5064615;28;20305;-48
2021/04/13 11:58:23;;;;;;;3.38;1.45;;;11.80;91.80;;;;;;5059260;28;20029;-50
2021/04/13 12:01:10;;;;;;;1.65;1.30;;;12.20;92.10;;;;;;5044902;28;20279;-48
2021/04/13 12:03:38;;;;;;;1.63;1.00;;;12.40;91.10;;;;;;5044580;28;20037;-48
2021/04/13 12:06:11;;;;;;;1.20;0.95;;;12.70;91.80;;;;;;5044438;28;20087;-47
2021/04/13 12:08:37;;;;;;;1.13;1.02;;;12.70;91.50;;;;;;5044330;28;20029;-47
2021/04/13 12:11:05;;;;;;;2.67;1.75;;;12.80;92.00;;;;;;5044178;28;20090;-51
2021/04/13 12:13:57;;;;;;;1.45;1.27;;;12.40;90.80;;;;;;5045038;28;20056;-51
2021/04/13 12:16:43;;;;;;;1.50;1.25;;;12.70;90.50;;;;;;5044423;28;20292;-49
2021/04/13 12:19:17;;;;;;;3.33;1.25;;;12.70;91.70;;;;;;5044401;28;20078;-48
2021/04/13 12:22:08;;;;;;;4.32;1.40;;;12.90;91.10;;;;;;5044024;28;20033;-49
2021/04/13 12:24:37;;;;;;;3.92;1.35;;;12.90;90.30;;;;;;5044279;28;20021;-51
2021/04/13 12:27:25;;;;;;;2.53;1.33;;;13.00;91.10;;;;;;5043829;28;20078;-51
2021/04/13 12:29:51;;;;;;;2.17;1.25;;;12.80;90.70;;;;;;5044469;28;20028;-47
2021/04/13 12:32:16;;;;;;;1.63;1.17;;;13.00;90.70;;;;;;5043867;28;20470;-49
2021/04/13 12:34:50;;;;;;;0.82;0.82;;;13.20;89.90;;;;;;5044356;28;20029;-48
2021/04/13 12:37:32;;;;;;;;;;;13.40;90.00;;;;;;5044191;28;20037;-48
2021/04/13 12:39:59;;;;;;;1.35;1.08;;;13.50;87.10;;;;;;5043429;28;19913;-50
2021/04/13 12:42:37;;;;;;;1.00;0.90;;;13.60;87.70;;;;;;5043281;28;20033;-48
2021/04/13 12:45:21;;;;;;;2.60;1.38;;;13.90;88.20;;;;;;5044461;28;20656;-47
2021/04/13 12:47:52;;;;;;;2.30;1.40;;;13.80;87.60;;;;;;5044021;28;20013;-48
2021/04/13 12:50:29;;;;;;;2.42;1.50;;;13.80;88.60;;;;;;5043768;28;20068;-52
2021/04/13 12:52:56;;;;;;;10.82;4.50;;;13.90;87.80;;;;;;5044224;28;20100;-51
2021/04/13 12:55:23;;;;;;;8.65;3.90;;;14.10;89.40;;;;;;5043856;28;20104;-47
2021/04/13 12:57:58;;;;;;;6.32;2.45;;;14.00;85.70;;;;;;5043992;28;20104;-48
2021/04/13 13:00:34;;;;;;;;;;;13.80;88.10;;;;;;5049164;28;20524;-47
2021/04/13 13:03:39;;;;;;;3.22;1.67;;;14.30;87.60;;;;;;5045056;28;19908;-49
2021/04/13 13:06:21;;;;;;;2.70;1.45;;;14.10;84.10;;;;;;5048165;28;20056;-50
2021/04/13 13:09:02;;;;;;;2.53;1.55;;;14.10;85.20;;;;;;5044046;28;20514;-52
2021/04/13 13:11:29;;;;;;;1.60;1.20;;;14.10;86.20;;;;;;5042289;28;20036;-48
2021/04/13 13:13:55;;;;;;;1.27;1.17;;;13.80;84.10;;;;;;5048422;28;20051;-51
2021/04/13 13:16:26;;;;;;;0.90;0.80;;;13.80;86.30;;;;;;5062471;28;20020;-49
2021/04/13 13:18:55;;;;;;;3.53;0.88;;;14.10;85.60;;;;;;5063774;28;20032;-51
2021/04/13 13:21:24;;;;;;;3.17;0.90;;;14.20;85.20;;;;;;5064741;28;20163;-52
2021/04/13 13:23:53;;;;;;;0.93;0.80;;;14.30;83.90;;;;;;5067487;28;20532;-49
2021/04/13 13:26:28;;;;;;;2.33;1.27;;;14.40;83.10;;;;;;5067157;28;20390;-50
2021/04/13 13:28:54;;;;;;;1.13;0.95;;;13.80;82.80;;;;;;5067415;28;20113;-51
2021/04/13 13:31:25;;;;;;;1.42;0.90;;;13.90;82.90;;;;;;5066106;28;20152;-52
2021/04/13 13:34:01;;;;;;;1.60;1.08;;;14.00;83.50;;;;;;5067592;28;20047;-49
2021/04/13 13:36:36;;;;;;;0.60;0.60;;;14.10;82.80;;;;;;5066871;28;20032;-51
2021/04/13 13:39:09;;;;;;;3.95;1.40;;;14.30;83.10;;;;;;5067955;28;20032;-51
2021/04/13 13:41:37;;;;;;;3.08;1.65;;;14.00;82.30;;;;;;5067434;28;20440;-50
2021/04/13 13:44:12;;;;;;;1.20;1.10;;;13.80;81.40;;;;;;5066444;28;20036;-52